sensor_id;sensor_type;location;lat;lon;timestamp;pressure;altitude;pressure_sealevel;temperature;humidity
15050;BME280;7622;42.724;23.250;2023-04-07T00:00:48;94395.22;;;2.76;87.48
15050;BME280;7622;42.724;23.250;2023-04-07T00:03:14;94384.34;;;2.86;86.05
15050;BME280;7622;42.724;23.250;2023-04-07T00:05:41;94388.88;;;2.82;86.38
15050;BME280;7622;42.724;23.250;2023-04-07T00:08:08;94388.97;;;2.81;85.68
15050;BME280;7622;42.724;23.250;2023-04-07T00:10:36;94387.63;;;2.75;85.25
15050;BME280;7622;42.724;23.250;2023-04-07T00:13:03;94384.34;;;2.86;84.81
15050;BME280;7622;42.724;23.250;2023-04-07T00:15:30;94383.59;;;2.84;84.30
15050;BME280;7622;42.724;23.250;2023-04-07T00:17:57;94380.84;;;2.87;84.09
15050;BME280;7622;42.724;23.250;2023-04-07T00:20:24;94376.75;;;2.97;84.07
15050;BME280;7622;42.724;23.250;2023-04-07T00:22:50;94380.03;;;2.86;84.63
15050;BME280;7622;42.724;23.250;2023-04-07T00:25:17;94377.28;;;2.76;85.35
15050;BME280;7622;42.724;23.250;2023-04-07T00:27:46;94384.97;;;2.89;84.53
15050;BME280;7622;42.724;23.250;2023-04-07T00:30:12;94380.34;;;2.82;83.60
15050;BME280;7622;42.724;23.250;2023-04-07T00:32:40;94378.78;;;2.92;83.23
15050;BME280;7622;42.724;23.250;2023-04-07T00:35:08;94381.75;;;2.86;84.62
15050;BME280;7622;42.724;23.250;2023-04-07T00:37:35;94377.97;;;2.78;85.59
15050;BME280;7622;42.724;23.250;2023-04-07T00:40:02;94379.19;;;2.86;86.44
15050;BME280;7622;42.724;23.250;2023-04-07T00:42:29;94375.22;;;2.82;85.61
15050;BME280;7622;42.724;23.250;2023-04-07T00:44:57;94369.56;;;2.89;85.95
15050;BME280;7622;42.724;23.250;2023-04-07T00:47:23;94380.63;;;2.77;84.09
15050;BME280;7622;42.724;23.250;2023-04-07T00:49:50;94378.81;;;2.66;85.13
15050;BME280;7622;42.724;23.250;2023-04-07T00:52:17;94341.91;;;2.31;85.54
15050;BME280;7622;42.724;23.250;2023-04-07T00:54:52;94378.00;;;2.66;83.78
15050;BME280;7622;42.724;23.250;2023-04-07T00:57:19;94371.84;;;2.81;80.76
15050;BME280;7622;42.724;23.250;2023-04-07T00:59:47;94363.63;;;2.89;79.07
15050;BME280;7622;42.724;23.250;2023-04-07T01:02:17;94369.97;;;2.96;77.14
15050;BME280;7622;42.724;23.250;2023-04-07T01:04:50;94369.34;;;2.92;76.05
15050;BME280;7622;42.724;23.250;2023-04-07T01:07:22;94366.81;;;2.80;75.78
15050;BME280;7622;42.724;23.250;2023-04-07T01:09:54;94354.19;;;2.89;75.85
15050;BME280;7622;42.724;23.250;2023-04-07T01:12:30;94363.28;;;2.93;76.25
15050;BME280;7622;42.724;23.250;2023-04-07T01:15:08;94356.84;;;2.88;74.93
15050;BME280;7622;42.724;23.250;2023-04-07T01:17:39;94363.56;;;3.14;73.81
15050;BME280;7622;42.724;23.250;2023-04-07T01:20:11;94359.28;;;3.02;73.79
15050;BME280;7622;42.724;23.250;2023-04-07T01:22:44;94365.63;;;3.09;74.12
15050;BME280;7622;42.724;23.250;2023-04-07T01:25:25;94358.00;;;3.20;73.31
15050;BME280;7622;42.724;23.250;2023-04-07T01:28:25;94360.41;;;3.10;73.54
15050;BME280;7622;42.724;23.250;2023-04-07T01:30:59;94346.53;;;3.13;72.08
15050;BME280;7622;42.724;23.250;2023-04-07T01:33:29;94355.31;;;3.22;71.90
15050;BME280;7622;42.724;23.250;2023-04-07T01:35:58;94357.13;;;3.32;70.53
15050;BME280;7622;42.724;23.250;2023-04-07T01:38:27;94350.78;;;3.25;70.07
15050;BME280;7622;42.724;23.250;2023-04-07T01:40:55;94355.31;;;3.22;70.43
15050;BME280;7622;42.724;23.250;2023-04-07T01:43:24;94363.41;;;3.28;70.40
15050;BME280;7622;42.724;23.250;2023-04-07T01:45:53;94359.22;;;3.27;73.44
15050;BME280;7622;42.724;23.250;2023-04-07T01:48:22;94347.56;;;3.10;75.07
15050;BME280;7622;42.724;23.250;2023-04-07T01:50:50;94355.56;;;3.06;80.52
15050;BME280;7622;42.724;23.250;2023-04-07T01:53:17;94356.63;;;2.91;81.96
15050;BME280;7622;42.724;23.250;2023-04-07T01:55:44;94350.88;;;3.00;82.37
15050;BME280;7622;42.724;23.250;2023-04-07T01:58:11;94346.06;;;2.95;79.84
15050;BME280;7622;42.724;23.250;2023-04-07T02:00:38;94342.06;;;3.04;75.27
15050;BME280;7622;42.724;23.250;2023-04-07T02:03:10;94341.34;;;3.26;72.33
15050;BME280;7622;42.724;23.250;2023-04-07T02:05:46;94326.56;;;3.29;71.21
15050;BME280;7622;42.724;23.250;2023-04-07T02:08:16;94338.53;;;3.17;73.21
15050;BME280;7622;42.724;23.250;2023-04-07T02:10:46;94339.75;;;3.12;73.47
15050;BME280;7622;42.724;23.250;2023-04-07T02:13:15;94339.84;;;3.23;73.38
15050;BME280;7622;42.724;23.250;2023-04-07T02:15:44;94345.25;;;3.31;72.31
15050;BME280;7622;42.724;23.250;2023-04-07T02:18:12;94343.38;;;3.33;70.24
15050;BME280;7622;42.724;23.250;2023-04-07T02:20:41;94347.44;;;3.48;68.44
15050;BME280;7622;42.724;23.250;2023-04-07T02:23:11;94342.09;;;3.51;68.87
15050;BME280;7622;42.724;23.250;2023-04-07T02:25:38;94340.84;;;3.57;69.94
15050;BME280;7622;42.724;23.250;2023-04-07T02:28:05;94347.53;;;3.23;78.85
15050;BME280;7622;42.724;23.250;2023-04-07T02:30:32;94353.13;;;2.92;86.14
15050;BME280;7622;42.724;23.250;2023-04-07T02:32:59;94348.97;;;2.65;97.66
15050;BME280;7622;42.724;23.250;2023-04-07T02:35:26;94352.53;;;2.63;100.00
15050;BME280;7622;42.724;23.250;2023-04-07T02:37:53;94354.81;;;2.42;100.00
15050;BME280;7622;42.724;23.250;2023-04-07T02:40:21;94348.34;;;2.36;100.00
15050;BME280;7622;42.724;23.250;2023-04-07T02:42:48;94356.69;;;2.40;100.00
15050;BME280;7622;42.724;23.250;2023-04-07T02:45:14;94348.47;;;2.35;100.00
15050;BME280;7622;42.724;23.250;2023-04-07T02:47:41;94346.19;;;2.43;100.00
15050;BME280;7622;42.724;23.250;2023-04-07T02:50:09;94352.13;;;2.56;99.85
15050;BME280;7622;42.724;23.250;2023-04-07T02:52:35;94352.25;;;2.67;85.52
15050;BME280;7622;42.724;23.250;2023-04-07T02:55:02;94352.22;;;2.93;78.29
15050;BME280;7622;42.724;23.250;2023-04-07T02:57:31;94352.38;;;3.15;77.88
15050;BME280;7622;42.724;23.250;2023-04-07T02:59:57;94347.72;;;3.20;74.79
15050;BME280;7622;42.724;23.250;2023-04-07T03:02:24;94348.94;;;3.27;77.59
15050;BME280;7622;42.724;23.250;2023-04-07T03:04:51;94344.59;;;3.40;73.92
15050;BME280;7622;42.724;23.250;2023-04-07T03:07:18;94349.78;;;3.51;69.27
15050;BME280;7622;42.724;23.250;2023-04-07T03:09:45;94350.47;;;3.53;68.44
15050;BME280;7622;42.724;23.250;2023-04-07T03:12:12;94353.06;;;3.53;67.35
15050;BME280;7622;42.724;23.250;2023-04-07T03:14:40;94358.03;;;3.68;67.68
15050;BME280;7622;42.724;23.250;2023-04-07T03:17:07;94350.47;;;3.66;66.28
15050;BME280;7622;42.724;23.250;2023-04-07T03:19:33;94353.59;;;3.70;65.83
15050;BME280;7622;42.724;23.250;2023-04-07T03:22:01;94344.50;;;3.66;65.93
15050;BME280;7622;42.724;23.250;2023-04-07T03:24:27;94347.09;;;3.77;65.10
15050;BME280;7622;42.724;23.250;2023-04-07T03:26:54;94344.13;;;3.59;65.35
15050;BME280;7622;42.724;23.250;2023-04-07T03:29:21;94344.81;;;3.61;64.94
15050;BME280;7622;42.724;23.250;2023-04-07T03:31:50;94345.53;;;3.63;65.94
15050;BME280;7622;42.724;23.250;2023-04-07T03:34:16;94351.91;;;3.58;65.79
15050;BME280;7622;42.724;23.250;2023-04-07T03:36:43;94346.50;;;3.49;66.13
15050;BME280;7622;42.724;23.250;2023-04-07T03:39:10;94354.25;;;3.61;65.99
15050;BME280;7622;42.724;23.250;2023-04-07T03:41:37;94351.69;;;3.61;65.76
15050;BME280;7622;42.724;23.250;2023-04-07T03:44:04;94351.38;;;3.65;65.52
15050;BME280;7622;42.724;23.250;2023-04-07T03:46:31;94358.69;;;3.59;66.46
15050;BME280;7622;42.724;23.250;2023-04-07T03:48:59;94335.31;;;3.50;66.13
15050;BME280;7622;42.724;23.250;2023-04-07T03:51:26;94358.53;;;3.73;65.78
15050;BME280;7622;42.724;23.250;2023-04-07T03:53:53;94357.19;;;3.67;65.90
15050;BME280;7622;42.724;23.250;2023-04-07T03:56:20;94356.38;;;3.67;65.60
15050;BME280;7622;42.724;23.250;2023-04-07T03:58:49;94354.63;;;3.67;65.71
15050;BME280;7622;42.724;23.250;2023-04-07T04:01:16;94361.53;;;3.67;65.38
15050;BME280;7622;42.724;23.250;2023-04-07T04:03:43;94366.28;;;3.60;66.04
15050;BME280;7622;42.724;23.250;2023-04-07T04:06:11;94368.41;;;3.90;85.13
15050;BME280;7622;42.724;23.250;2023-04-07T04:08:38;94372.47;;;4.16;67.32
15050;BME280;7622;42.724;23.250;2023-04-07T04:11:04;94378.78;;;4.12;65.36
15050;BME280;7622;42.724;23.250;2023-04-07T04:13:31;94373.25;;;4.06;65.44
15050;BME280;7622;42.724;23.250;2023-04-07T04:15:58;94378.59;;;4.03;65.45
15050;BME280;7622;42.724;23.250;2023-04-07T04:18:25;94379.16;;;3.95;65.45
15050;BME280;7622;42.724;23.250;2023-04-07T04:20:51;94384.34;;;4.06;66.00
15050;BME280;7622;42.724;23.250;2023-04-07T04:23:20;94375.84;;;3.82;77.69
15050;BME280;7622;42.724;23.250;2023-04-07T04:25:46;94384.91;;;3.14;100.00
15050;BME280;7622;42.724;23.250;2023-04-07T04:28:13;94383.38;;;2.99;100.00
15050;BME280;7622;42.724;23.250;2023-04-07T04:30:40;94378.81;;;2.66;100.00
15050;BME280;7622;42.724;23.250;2023-04-07T04:33:07;94390.69;;;2.42;100.00
15050;BME280;7622;42.724;23.250;2023-04-07T04:35:33;94398.69;;;2.50;100.00
15050;BME280;7622;42.724;23.250;2023-04-07T04:38:00;94379.81;;;2.13;100.00
15050;BME280;7622;42.724;23.250;2023-04-07T04:40:28;94391.06;;;1.98;100.00
15050;BME280;7622;42.724;23.250;2023-04-07T04:42:55;94403.16;;;2.09;100.00
15050;BME280;7622;42.724;23.250;2023-04-07T04:45:22;94396.72;;;2.28;100.00
15050;BME280;7622;42.724;23.250;2023-04-07T04:47:49;94400.75;;;2.32;100.00
15050;BME280;7622;42.724;23.250;2023-04-07T04:50:16;94404.03;;;2.34;100.00
15050;BME280;7622;42.724;23.250;2023-04-07T04:52:42;94399.31;;;2.41;100.00
15050;BME280;7622;42.724;23.250;2023-04-07T04:55:09;94408.75;;;2.28;100.00
15050;BME280;7622;42.724;23.250;2023-04-07T04:57:38;94409.56;;;2.41;100.00
15050;BME280;7622;42.724;23.250;2023-04-07T05:00:05;94414.88;;;2.38;100.00
15050;BME280;7622;42.724;23.250;2023-04-07T05:02:32;94413.16;;;2.64;100.00
15050;BME280;7622;42.724;23.250;2023-04-07T05:04:59;94412.03;;;2.55;100.00
15050;BME280;7622;42.724;23.250;2023-04-07T05:07:26;94416.13;;;2.45;100.00
15050;BME280;7622;42.724;23.250;2023-04-07T05:09:53;94413.47;;;2.59;100.00
15050;BME280;7622;42.724;23.250;2023-04-07T05:12:20;94418.78;;;2.56;100.00
15050;BME280;7622;42.724;23.250;2023-04-07T05:14:48;94428.53;;;2.51;100.00
15050;BME280;7622;42.724;23.250;2023-04-07T05:17:15;94426.59;;;2.67;100.00
15050;BME280;7622;42.724;23.250;2023-04-07T05:19:42;94428.75;;;2.73;100.00
15050;BME280;7622;42.724;23.250;2023-04-07T05:22:09;94431.63;;;2.82;100.00
15050;BME280;7622;42.724;23.250;2023-04-07T05:24:35;94426.78;;;2.77;100.00
15050;BME280;7622;42.724;23.250;2023-04-07T05:27:02;94354.63;;;2.45;100.00
15050;BME280;7622;42.724;23.250;2023-04-07T05:29:29;94424.44;;;2.87;100.00
15050;BME280;7622;42.724;23.250;2023-04-07T05:31:57;94427.81;;;3.00;100.00
15050;BME280;7622;42.724;23.250;2023-04-07T05:34:25;94424.34;;;3.86;100.00
15050;BME280;7622;42.724;23.250;2023-04-07T05:36:52;94418.25;;;4.11;100.00
15050;BME280;7622;42.724;23.250;2023-04-07T05:39:19;94423.38;;;3.64;100.00
15050;BME280;7622;42.724;23.250;2023-04-07T05:41:46;94425.34;;;3.84;100.00
15050;BME280;7622;42.724;23.250;2023-04-07T05:44:14;94427.44;;;3.79;100.00
15050;BME280;7622;42.724;23.250;2023-04-07T05:46:41;94422.81;;;3.47;100.00
15050;BME280;7622;42.724;23.250;2023-04-07T05:49:09;94432.78;;;3.52;100.00
15050;BME280;7622;42.724;23.250;2023-04-07T05:51:36;94434.09;;;3.58;100.00
15050;BME280;7622;42.724;23.250;2023-04-07T05:54:03;94424.75;;;3.56;100.00
15050;BME280;7622;42.724;23.250;2023-04-07T05:56:29;94432.28;;;3.71;100.00
15050;BME280;7622;42.724;23.250;2023-04-07T05:58:56;94424.97;;;3.77;100.00
15050;BME280;7622;42.724;23.250;2023-04-07T06:01:24;94431.75;;;3.78;100.00
15050;BME280;7622;42.724;23.250;2023-04-07T06:03:51;94431.28;;;4.08;100.00
15050;BME280;7622;42.724;23.250;2023-04-07T06:06:19;94434.59;;;4.45;100.00
15050;BME280;7622;42.724;23.250;2023-04-07T06:08:46;94434.66;;;4.67;100.00
15050;BME280;7622;42.724;23.250;2023-04-07T06:11:13;94434.06;;;4.64;100.00
15050;BME280;7622;42.724;23.250;2023-04-07T06:13:40;94421.44;;;4.72;100.00
15050;BME280;7622;42.724;23.250;2023-04-07T06:16:07;94438.38;;;5.32;100.00
15050;BME280;7622;42.724;23.250;2023-04-07T06:18:33;94420.84;;;5.91;94.08
15050;BME280;7622;42.724;23.250;2023-04-07T06:21:01;94419.69;;;5.62;88.87
15050;BME280;7622;42.724;23.250;2023-04-07T06:23:29;94416.94;;;6.08;81.54
15050;BME280;7622;42.724;23.250;2023-04-07T06:25:55;94425.03;;;6.35;75.25
15050;BME280;7622;42.724;23.250;2023-04-07T06:28:22;94417.00;;;7.21;65.87
15050;BME280;7622;42.724;23.250;2023-04-07T06:30:49;94418.47;;;7.94;55.63
15050;BME280;7622;42.724;23.250;2023-04-07T06:33:16;94415.88;;;7.94;53.27
15050;BME280;7622;42.724;23.250;2023-04-07T06:35:43;94422.06;;;8.32;53.07
15050;BME280;7622;42.724;23.250;2023-04-07T06:38:09;94416.63;;;8.35;51.48
15050;BME280;7622;42.724;23.250;2023-04-07T06:40:38;94414.03;;;8.54;51.70
15050;BME280;7622;42.724;23.250;2023-04-07T06:43:05;94427.53;;;8.57;51.60
15050;BME280;7622;42.724;23.250;2023-04-07T06:45:31;94413.91;;;8.46;51.59
15050;BME280;7622;42.724;23.250;2023-04-07T06:47:58;94422.97;;;8.11;51.25
15050;BME280;7622;42.724;23.250;2023-04-07T06:50:25;94418.16;;;7.78;52.40
15050;BME280;7622;42.724;23.250;2023-04-07T06:52:52;94425.28;;;8.05;51.71
15050;BME280;7622;42.724;23.250;2023-04-07T06:55:18;94417.75;;;7.73;52.76
15050;BME280;7622;42.724;23.250;2023-04-07T06:57:47;94428.53;;;7.97;52.66
15050;BME280;7622;42.724;23.250;2023-04-07T07:00:15;94429.38;;;8.26;52.47
15050;BME280;7622;42.724;23.250;2023-04-07T07:02:42;94427.72;;;7.87;51.70
15050;BME280;7622;42.724;23.250;2023-04-07T07:05:09;94435.72;;;7.84;51.36
15050;BME280;7622;42.724;23.250;2023-04-07T07:07:36;94436.69;;;7.93;51.66
15050;BME280;7622;42.724;23.250;2023-04-07T07:10:03;94442.78;;;7.42;51.20
15050;BME280;7622;42.724;23.250;2023-04-07T07:12:30;94444.06;;;7.27;51.93
15050;BME280;7622;42.724;23.250;2023-04-07T07:14:59;94447.66;;;7.05;52.72
15050;BME280;7622;42.724;23.250;2023-04-07T07:17:25;94446.22;;;6.91;52.65
15050;BME280;7622;42.724;23.250;2023-04-07T07:19:52;94446.97;;;7.03;52.09
15050;BME280;7622;42.724;23.250;2023-04-07T07:22:19;94441.84;;;7.43;53.14
15050;BME280;7622;42.724;23.250;2023-04-07T07:24:46;94448.78;;;7.42;51.59
15050;BME280;7622;42.724;23.250;2023-04-07T07:27:12;94439.72;;;7.58;51.61
15050;BME280;7622;42.724;23.250;2023-04-07T07:29:40;94442.84;;;7.51;50.73
15050;BME280;7622;42.724;23.250;2023-04-07T07:32:08;94453.13;;;7.42;52.37
15050;BME280;7622;42.724;23.250;2023-04-07T07:34:35;94458.00;;;7.66;51.42
15050;BME280;7622;42.724;23.250;2023-04-07T07:37:01;94451.38;;;7.92;51.02
15050;BME280;7622;42.724;23.250;2023-04-07T07:39:28;94441.31;;;7.89;50.61
15050;BME280;7622;42.724;23.250;2023-04-07T07:41:55;94463.41;;;8.12;50.15
15050;BME280;7622;42.724;23.250;2023-04-07T07:44:22;94430.75;;;8.02;50.86
15050;BME280;7622;42.724;23.250;2023-04-07T07:46:49;94458.16;;;7.74;50.41
15050;BME280;7622;42.724;23.250;2023-04-07T07:49:17;94453.81;;;7.84;50.64
15050;BME280;7622;42.724;23.250;2023-04-07T07:51:44;94460.59;;;7.75;50.89
15050;BME280;7622;42.724;23.250;2023-04-07T07:54:11;94449.34;;;7.86;50.20
15050;BME280;7622;42.724;23.250;2023-04-07T07:56:38;94450.50;;;8.22;49.54
15050;BME280;7622;42.724;23.250;2023-04-07T07:59:05;94467.22;;;8.18;49.37
15050;BME280;7622;42.724;23.250;2023-04-07T08:01:32;94469.91;;;7.97;51.35
15050;BME280;7622;42.724;23.250;2023-04-07T08:03:58;94472.13;;;8.11;50.90
15050;BME280;7622;42.724;23.250;2023-04-07T08:06:26;94467.88;;;8.01;49.81
15050;BME280;7622;42.724;23.250;2023-04-07T08:08:56;94469.53;;;8.02;50.69
15050;BME280;7622;42.724;23.250;2023-04-07T08:11:23;94463.56;;;8.30;51.37
15050;BME280;7622;42.724;23.250;2023-04-07T08:13:50;94483.47;;;8.29;49.91
15050;BME280;7622;42.724;23.250;2023-04-07T08:16:18;94459.88;;;8.23;50.88
15050;BME280;7622;42.724;23.250;2023-04-07T08:18:46;94467.84;;;8.60;50.09
15050;BME280;7622;42.724;23.250;2023-04-07T08:21:13;94463.22;;;8.54;50.65
15050;BME280;7622;42.724;23.250;2023-04-07T08:23:41;94467.97;;;8.68;50.07
15050;BME280;7622;42.724;23.250;2023-04-07T08:26:08;94450.66;;;8.78;49.11
15050;BME280;7622;42.724;23.250;2023-04-07T08:28:34;94463.03;;;8.26;49.68
15050;BME280;7622;42.724;23.250;2023-04-07T08:31:01;94470.31;;;8.71;49.70
15050;BME280;7622;42.724;23.250;2023-04-07T08:33:28;94467.66;;;9.09;49.35
15050;BME280;7622;42.724;23.250;2023-04-07T08:35:55;94466.31;;;9.05;48.44
15050;BME280;7622;42.724;23.250;2023-04-07T08:38:21;94466.41;;;9.23;48.17
15050;BME280;7622;42.724;23.250;2023-04-07T08:40:54;94450.13;;;8.84;48.67
15050;BME280;7622;42.724;23.250;2023-04-07T08:43:25;94461.28;;;9.04;49.36
15050;BME280;7622;42.724;23.250;2023-04-07T08:45:55;94471.53;;;9.42;48.12
15050;BME280;7622;42.724;23.250;2023-04-07T08:48:23;94464.25;;;9.19;48.42
15050;BME280;7622;42.724;23.250;2023-04-07T08:50:52;94468.81;;;9.44;47.89
15050;BME280;7622;42.724;23.250;2023-04-07T08:53:22;94475.44;;;9.56;47.19
15050;BME280;7622;42.724;23.250;2023-04-07T08:55:54;94467.66;;;9.66;47.86
15050;BME280;7622;42.724;23.250;2023-04-07T08:58:22;94474.25;;;10.15;46.65
15050;BME280;7622;42.724;23.250;2023-04-07T09:00:49;94469.63;;;10.54;46.04
15050;BME280;7622;42.724;23.250;2023-04-07T09:03:16;94471.19;;;10.29;46.58
15050;BME280;7622;42.724;23.250;2023-04-07T09:05:44;94461.25;;;10.78;45.90
15050;BME280;7622;42.724;23.250;2023-04-07T09:08:11;94465.09;;;10.91;45.71
15050;BME280;7622;42.724;23.250;2023-04-07T09:10:38;94455.66;;;10.73;45.43
15050;BME280;7622;42.724;23.250;2023-04-07T09:13:06;94456.50;;;10.91;45.16
15050;BME280;7622;42.724;23.250;2023-04-07T09:15:33;94460.75;;;11.00;45.81
15050;BME280;7622;42.724;23.250;2023-04-07T09:18:00;94468.66;;;10.73;45.50
15050;BME280;7622;42.724;23.250;2023-04-07T09:20:28;94467.63;;;10.65;46.41
15050;BME280;7622;42.724;23.250;2023-04-07T09:23:26;94465.69;;;10.05;46.69
15050;BME280;7622;42.724;23.250;2023-04-07T09:25:53;94465.59;;;10.24;46.75
15050;BME280;7622;42.724;23.250;2023-04-07T09:28:22;94460.16;;;9.90;46.20
15050;BME280;7622;42.724;23.250;2023-04-07T09:30:52;94466.97;;;9.91;46.53
15050;BME280;7622;42.724;23.250;2023-04-07T09:33:26;94472.22;;;10.09;46.51
15050;BME280;7622;42.724;23.250;2023-04-07T09:35:53;94473.31;;;9.79;46.55
15050;BME280;7622;42.724;23.250;2023-04-07T09:38:20;94473.41;;;9.60;46.68
15050;BME280;7622;42.724;23.250;2023-04-07T09:40:47;94477.59;;;9.33;47.74
15050;BME280;7622;42.724;23.250;2023-04-07T09:43:15;94477.41;;;9.35;47.80
15050;BME280;7622;42.724;23.250;2023-04-07T09:45:43;94484.72;;;9.12;48.67
15050;BME280;7622;42.724;23.250;2023-04-07T09:48:18;94491.28;;;8.87;49.66
15050;BME280;7622;42.724;23.250;2023-04-07T09:50:45;94485.56;;;8.74;50.59
15050;BME280;7622;42.724;23.250;2023-04-07T09:53:14;94485.25;;;9.06;50.43
15050;BME280;7622;42.724;23.250;2023-04-07T09:55:41;94482.13;;;9.12;50.23
15050;BME280;7622;42.724;23.250;2023-04-07T09:58:11;94450.94;;;8.75;50.26
15050;BME280;7622;42.724;23.250;2023-04-07T10:00:39;94483.94;;;8.83;50.41
15050;BME280;7622;42.724;23.250;2023-04-07T10:03:08;94478.19;;;8.98;50.28
15050;BME280;7622;42.724;23.250;2023-04-07T10:05:34;94491.75;;;9.39;49.83
15050;BME280;7622;42.724;23.250;2023-04-07T10:08:01;94485.63;;;9.30;49.18
15050;BME280;7622;42.724;23.250;2023-04-07T10:10:29;94472.13;;;9.27;49.30
15050;BME280;7622;42.724;23.250;2023-04-07T10:12:57;94482.34;;;9.38;49.49
15050;BME280;7622;42.724;23.250;2023-04-07T10:15:24;94484.63;;;9.41;49.29
15050;BME280;7622;42.724;23.250;2023-04-07T10:17:52;94479.56;;;8.83;50.14
15050;BME280;7622;42.724;23.250;2023-04-07T10:20:22;94484.22;;;8.70;51.40
15050;BME280;7622;42.724;23.250;2023-04-07T10:22:51;94489.13;;;8.63;52.25
15050;BME280;7622;42.724;23.250;2023-04-07T10:25:21;94484.19;;;8.60;51.74
15050;BME280;7622;42.724;23.250;2023-04-07T10:27:51;94484.34;;;8.49;52.41
15050;BME280;7622;42.724;23.250;2023-04-07T10:30:24;94489.09;;;8.92;51.56
15050;BME280;7622;42.724;23.250;2023-04-07T10:32:52;94486.25;;;8.76;51.78
15050;BME280;7622;42.724;23.250;2023-04-07T10:35:19;94493.31;;;8.55;51.71
15050;BME280;7622;42.724;23.250;2023-04-07T10:38:10;94495.38;;;8.71;51.87
15050;BME280;7622;42.724;23.250;2023-04-07T10:40:38;94490.19;;;8.42;52.45
15050;BME280;7622;42.724;23.250;2023-04-07T10:43:06;94502.59;;;8.67;52.69
15050;BME280;7622;42.724;23.250;2023-04-07T10:45:54;94501.63;;;8.68;53.50
15050;BME280;7622;42.724;23.250;2023-04-07T10:48:24;94501.50;;;8.69;53.71
15050;BME280;7622;42.724;23.250;2023-04-07T10:51:14;94504.09;;;8.79;53.74
15050;BME280;7622;42.724;23.250;2023-04-07T10:57:12;94503.53;;;8.85;53.53
15050;BME280;7622;42.724;23.250;2023-04-07T10:59:41;94501.78;;;8.95;53.14
15050;BME280;7622;42.724;23.250;2023-04-07T11:02:33;94500.44;;;8.91;53.24
15050;BME280;7622;42.724;23.250;2023-04-07T11:05:00;94509.38;;;9.06;53.34
15050;BME280;7622;42.724;23.250;2023-04-07T11:07:44;94511.16;;;8.87;53.73
15050;BME280;7622;42.724;23.250;2023-04-07T11:10:13;94493.72;;;9.18;53.16
15050;BME280;7622;42.724;23.250;2023-04-07T11:12:42;94491.25;;;9.26;53.66
15050;BME280;7622;42.724;23.250;2023-04-07T11:15:19;94506.81;;;8.97;53.16
15050;BME280;7622;42.724;23.250;2023-04-07T11:18:05;94506.25;;;9.03;53.68
15050;BME280;7622;42.724;23.250;2023-04-07T11:20:43;94506.69;;;8.69;54.13
15050;BME280;7622;42.724;23.250;2023-04-07T11:23:11;94501.78;;;8.95;52.82
15050;BME280;7622;42.724;23.250;2023-04-07T11:25:38;94508.16;;;9.01;53.03
15050;BME280;7622;42.724;23.250;2023-04-07T11:28:09;94504.63;;;8.92;52.68
15050;BME280;7622;42.724;23.250;2023-04-07T11:30:36;94505.44;;;9.12;53.34
15050;BME280;7622;42.724;23.250;2023-04-07T11:33:03;94512.75;;;9.36;53.28
15050;BME280;7622;42.724;23.250;2023-04-07T11:35:30;94513.19;;;9.22;54.09
15050;BME280;7622;42.724;23.250;2023-04-07T11:37:57;94518.94;;;9.16;54.41
15050;BME280;7622;42.724;23.250;2023-04-07T11:40:32;94510.38;;;8.96;54.83
15050;BME280;7622;42.724;23.250;2023-04-07T11:43:00;94510.22;;;9.17;54.58
15050;BME280;7622;42.724;23.250;2023-04-07T11:45:29;94508.38;;;9.46;53.73
15050;BME280;7622;42.724;23.250;2023-04-07T11:47:55;94518.25;;;9.33;53.85
15050;BME280;7622;42.724;23.250;2023-04-07T11:50:38;94515.97;;;9.67;53.50
15050;BME280;7622;42.724;23.250;2023-04-07T11:53:06;94507.00;;;9.52;53.80
15050;BME280;7622;42.724;23.250;2023-04-07T11:55:33;94514.81;;;9.79;53.41
15050;BME280;7622;42.724;23.250;2023-04-07T11:58:05;94499.78;;;9.82;53.09
15050;BME280;7622;42.724;23.250;2023-04-07T12:00:35;94501.97;;;9.87;52.70
15050;BME280;7622;42.724;23.250;2023-04-07T12:03:09;94500.69;;;9.91;52.66
15050;BME280;7622;42.724;23.250;2023-04-07T12:05:42;94503.06;;;9.38;53.25
15050;BME280;7622;42.724;23.250;2023-04-07T12:08:10;94506.56;;;9.56;53.10
15050;BME280;7622;42.724;23.250;2023-04-07T12:10:37;94501.03;;;9.32;53.14
15050;BME280;7622;42.724;23.250;2023-04-07T12:13:05;94501.63;;;8.97;53.82
15050;BME280;7622;42.724;23.250;2023-04-07T12:15:32;94507.22;;;9.12;54.42
15050;BME280;7622;42.724;23.250;2023-04-07T12:18:01;94500.09;;;9.14;53.97
15050;BME280;7622;42.724;23.250;2023-04-07T12:20:28;94501.09;;;8.93;54.02
15050;BME280;7622;42.724;23.250;2023-04-07T12:22:54;94509.66;;;9.69;59.10
15050;BME280;7622;42.724;23.250;2023-04-07T12:25:21;94486.31;;;9.23;54.64
15050;BME280;7622;42.724;23.250;2023-04-07T12:27:48;94509.59;;;9.42;53.51
15050;BME280;7622;42.724;23.250;2023-04-07T12:30:15;94506.28;;;9.13;54.03
15050;BME280;7622;42.724;23.250;2023-04-07T12:32:42;94499.28;;;9.23;54.42
15050;BME280;7622;42.724;23.250;2023-04-07T12:35:10;94503.38;;;9.16;54.13
15050;BME280;7622;42.724;23.250;2023-04-07T12:37:36;94500.38;;;9.20;53.44
15050;BME280;7622;42.724;23.250;2023-04-07T12:40:04;94503.22;;;9.27;54.41
15050;BME280;7622;42.724;23.250;2023-04-07T12:42:31;94427.22;;;8.80;54.99
15050;BME280;7622;42.724;23.250;2023-04-07T12:44:58;94510.72;;;9.20;54.53
15050;BME280;7622;42.724;23.250;2023-04-07T12:47:25;94504.28;;;9.34;54.49
15050;BME280;7622;42.724;23.250;2023-04-07T12:49:51;94510.72;;;9.39;54.87
15050;BME280;7622;42.724;23.250;2023-04-07T12:52:19;94499.84;;;9.07;54.86
15050;BME280;7622;42.724;23.250;2023-04-07T12:54:46;94510.06;;;9.08;55.68
15050;BME280;7622;42.724;23.250;2023-04-07T12:57:13;94510.19;;;9.26;55.09
15050;BME280;7622;42.724;23.250;2023-04-07T12:59:40;94497.94;;;8.99;55.32
15050;BME280;7622;42.724;23.250;2023-04-07T13:02:07;94508.06;;;8.64;55.87
15050;BME280;7622;42.724;23.250;2023-04-07T13:04:34;94512.94;;;8.96;60.16
15050;BME280;7622;42.724;23.250;2023-04-07T13:07:01;94506.13;;;8.95;56.53
15050;BME280;7622;42.724;23.250;2023-04-07T13:09:29;94507.63;;;8.68;57.03
15050;BME280;7622;42.724;23.250;2023-04-07T13:11:56;94511.03;;;8.88;57.04
15050;BME280;7622;42.724;23.250;2023-04-07T13:14:23;94511.72;;;9.00;55.88
15050;BME280;7622;42.724;23.250;2023-04-07T13:16:50;94506.56;;;8.90;56.76
15050;BME280;7622;42.724;23.250;2023-04-07T13:19:16;94510.63;;;9.02;56.16